sensor_id;sensor_type;location;lat;lon;timestamp;P1;durP1;ratioP1;P2;durP2;ratioP2
22166;SDS011;11249;52.468;13.776;2023-07-13T00:01:54;4.88;;;3.50;;
22166;SDS011;11249;52.468;13.776;2023-07-13T00:04:21;6.30;;;3.50;;
22166;SDS011;11249;52.468;13.776;2023-07-13T00:06:51;6.28;;;3.50;;
22166;SDS011;11249;52.468;13.776;2023-07-13T00:09:18;4.45;;;3.55;;
22166;SDS011;11249;52.468;13.776;2023-07-13T00:11:49;6.40;;;3.45;;
22166;SDS011;11249;52.468;13.776;2023-07-13T00:14:18;5.43;;;3.55;;
22166;SDS011;11249;52.468;13.776;2023-07-13T00:16:45;6.90;;;3.72;;
22166;SDS011;11249;52.468;13.776;2023-07-13T00:19:13;4.03;;;3.67;;
22166;SDS011;11249;52.468;13.776;2023-07-13T00:21:40;7.35;;;3.90;;
22166;SDS011;11249;52.468;13.776;2023-07-13T00:24:08;6.45;;;3.72;;
22166;SDS011;11249;52.468;13.776;2023-07-13T00:26:42;8.40;;;4.15;;
22166;SDS011;11249;52.468;13.776;2023-07-13T00:29:12;5.45;;;3.17;;
22166;SDS011;11249;52.468;13.776;2023-07-13T00:31:40;7.32;;;3.40;;
22166;SDS011;11249;52.468;13.776;2023-07-13T00:34:06;6.40;;;3.40;;
22166;SDS011;11249;52.468;13.776;2023-07-13T00:36:33;5.95;;;3.50;;
22166;SDS011;11249;52.468;13.776;2023-07-13T00:39:00;7.70;;;3.67;;
22166;SDS011;11249;52.468;13.776;2023-07-13T00:41:27;4.60;;;3.95;;
22166;SDS011;11249;52.468;13.776;2023-07-13T00:43:54;5.13;;;3.35;;
22166;SDS011;11249;52.468;13.776;2023-07-13T00:46:25;6.70;;;3.67;;
22166;SDS011;11249;52.468;13.776;2023-07-13T00:48:54;4.78;;;3.40;;
22166;SDS011;11249;52.468;13.776;2023-07-13T00:51:26;6.75;;;4.22;;
22166;SDS011;11249;52.468;13.776;2023-07-13T00:53:56;3.63;;;3.10;;
22166;SDS011;11249;52.468;13.776;2023-07-13T00:56:26;6.25;;;3.65;;
22166;SDS011;11249;52.468;13.776;2023-07-13T00:58:54;5.72;;;3.25;;
22166;SDS011;11249;52.468;13.776;2023-07-13T01:01:23;5.88;;;3.60;;
22166;SDS011;11249;52.468;13.776;2023-07-13T01:03:50;7.22;;;3.75;;
22166;SDS011;11249;52.468;13.776;2023-07-13T01:06:16;6.97;;;3.22;;
22166;SDS011;11249;52.468;13.776;2023-07-13T01:08:44;7.13;;;3.55;;
22166;SDS011;11249;52.468;13.776;2023-07-13T01:11:10;4.18;;;3.45;;
22166;SDS011;11249;52.468;13.776;2023-07-13T01:13:37;6.15;;;3.55;;
22166;SDS011;11249;52.468;13.776;2023-07-13T01:16:05;5.38;;;3.90;;
22166;SDS011;11249;52.468;13.776;2023-07-13T01:18:41;5.78;;;3.15;;
22166;SDS011;11249;52.468;13.776;2023-07-13T01:21:07;6.05;;;3.55;;
22166;SDS011;11249;52.468;13.776;2023-07-13T01:23:34;6.97;;;3.53;;
22166;SDS011;11249;52.468;13.776;2023-07-13T01:26:01;5.20;;;3.60;;
22166;SDS011;11249;52.468;13.776;2023-07-13T01:28:28;8.45;;;3.50;;
22166;SDS011;11249;52.468;13.776;2023-07-13T01:30:57;4.60;;;3.28;;
22166;SDS011;11249;52.468;13.776;2023-07-13T01:33:24;5.78;;;4.00;;
22166;SDS011;11249;52.468;13.776;2023-07-13T01:35:52;6.78;;;3.10;;
22166;SDS011;11249;52.468;13.776;2023-07-13T01:38:20;3.78;;;3.30;;
22166;SDS011;11249;52.468;13.776;2023-07-13T01:40:48;5.88;;;3.88;;
22166;SDS011;11249;52.468;13.776;2023-07-13T01:43:17;4.75;;;3.20;;
22166;SDS011;11249;52.468;13.776;2023-07-13T01:45:44;6.75;;;3.70;;
22166;SDS011;11249;52.468;13.776;2023-07-13T01:48:11;4.32;;;3.63;;
22166;SDS011;11249;52.468;13.776;2023-07-13T01:50:39;6.45;;;3.25;;
22166;SDS011;11249;52.468;13.776;2023-07-13T01:53:06;3.70;;;3.00;;
22166;SDS011;11249;52.468;13.776;2023-07-13T01:55:33;4.07;;;3.25;;
22166;SDS011;11249;52.468;13.776;2023-07-13T01:58:00;4.68;;;3.63;;
22166;SDS011;11249;52.468;13.776;2023-07-13T02:00:27;5.07;;;3.22;;
22166;SDS011;11249;52.468;13.776;2023-07-13T02:02:54;5.63;;;3.65;;
22166;SDS011;11249;52.468;13.776;2023-07-13T02:05:21;4.15;;;3.20;;
22166;SDS011;11249;52.468;13.776;2023-07-13T02:07:47;8.13;;;3.88;;
22166;SDS011;11249;52.468;13.776;2023-07-13T02:10:15;5.78;;;3.85;;
22166;SDS011;11249;52.468;13.776;2023-07-13T02:12:42;9.18;;;3.95;;
22166;SDS011;11249;52.468;13.776;2023-07-13T02:15:09;5.00;;;3.08;;
22166;SDS011;11249;52.468;13.776;2023-07-13T02:17:36;4.65;;;3.42;;
22166;SDS011;11249;52.468;13.776;2023-07-13T02:20:03;3.80;;;3.30;;
22166;SDS011;11249;52.468;13.776;2023-07-13T02:22:31;5.55;;;3.55;;
22166;SDS011;11249;52.468;13.776;2023-07-13T02:24:58;6.07;;;3.30;;
22166;SDS011;11249;52.468;13.776;2023-07-13T02:27:25;6.28;;;3.83;;
22166;SDS011;11249;52.468;13.776;2023-07-13T02:29:52;5.45;;;3.45;;
22166;SDS011;11249;52.468;13.776;2023-07-13T02:32:19;8.38;;;3.28;;
22166;SDS011;11249;52.468;13.776;2023-07-13T02:34:46;6.22;;;3.53;;
22166;SDS011;11249;52.468;13.776;2023-07-13T02:37:13;6.75;;;4.00;;
22166;SDS011;11249;52.468;13.776;2023-07-13T02:39:39;4.65;;;3.40;;
22166;SDS011;11249;52.468;13.776;2023-07-13T02:42:08;5.55;;;3.65;;
22166;SDS011;11249;52.468;13.776;2023-07-13T02:44:35;4.30;;;3.65;;
22166;SDS011;11249;52.468;13.776;2023-07-13T02:47:02;6.22;;;3.60;;
22166;SDS011;11249;52.468;13.776;2023-07-13T02:49:29;4.35;;;3.10;;
22166;SDS011;11249;52.468;13.776;2023-07-13T02:51:55;12.35;;;4.20;;
22166;SDS011;11249;52.468;13.776;2023-07-13T02:54:22;6.65;;;3.42;;
22166;SDS011;11249;52.468;13.776;2023-07-13T02:56:49;4.18;;;3.42;;
22166;SDS011;11249;52.468;13.776;2023-07-13T02:59:16;6.93;;;4.13;;
22166;SDS011;11249;52.468;13.776;2023-07-13T03:01:42;7.30;;;4.07;;
22166;SDS011;11249;52.468;13.776;2023-07-13T03:04:09;6.32;;;3.85;;
22166;SDS011;11249;52.468;13.776;2023-07-13T03:06:36;10.48;;;4.22;;
22166;SDS011;11249;52.468;13.776;2023-07-13T03:09:03;8.02;;;4.18;;
22166;SDS011;11249;52.468;13.776;2023-07-13T03:11:30;5.43;;;3.70;;
22166;SDS011;11249;52.468;13.776;2023-07-13T03:13:57;4.70;;;3.58;;
22166;SDS011;11249;52.468;13.776;2023-07-13T03:16:24;6.55;;;4.25;;
22166;SDS011;11249;52.468;13.776;2023-07-13T03:18:51;8.80;;;4.28;;
22166;SDS011;11249;52.468;13.776;2023-07-13T03:21:17;6.85;;;3.70;;
22166;SDS011;11249;52.468;13.776;2023-07-13T03:23:44;5.68;;;3.65;;
22166;SDS011;11249;52.468;13.776;2023-07-13T03:26:13;4.75;;;3.83;;
22166;SDS011;11249;52.468;13.776;2023-07-13T03:28:42;5.25;;;3.88;;
22166;SDS011;11249;52.468;13.776;2023-07-13T03:31:14;4.68;;;3.75;;
22166;SDS011;11249;52.468;13.776;2023-07-13T03:33:43;5.35;;;3.45;;
22166;SDS011;11249;52.468;13.776;2023-07-13T03:36:12;9.40;;;4.22;;
22166;SDS011;11249;52.468;13.776;2023-07-13T03:38:42;5.35;;;4.15;;
22166;SDS011;11249;52.468;13.776;2023-07-13T03:41:09;6.93;;;4.00;;
22166;SDS011;11249;52.468;13.776;2023-07-13T03:43:35;6.68;;;3.70;;
22166;SDS011;11249;52.468;13.776;2023-07-13T03:46:02;5.20;;;4.13;;
22166;SDS011;11249;52.468;13.776;2023-07-13T03:48:29;5.45;;;4.10;;
22166;SDS011;11249;52.468;13.776;2023-07-13T03:50:55;7.95;;;4.63;;
22166;SDS011;11249;52.468;13.776;2023-07-13T03:53:22;9.75;;;5.03;;
22166;SDS011;11249;52.468;13.776;2023-07-13T03:55:49;4.45;;;3.83;;
22166;SDS011;11249;52.468;13.776;2023-07-13T03:58:32;7.43;;;4.53;;
22166;SDS011;11249;52.468;13.776;2023-07-13T04:01:10;5.85;;;4.10;;
22166;SDS011;11249;52.468;13.776;2023-07-13T04:03:38;7.93;;;4.00;;
22166;SDS011;11249;52.468;13.776;2023-07-13T04:06:07;9.52;;;4.95;;
22166;SDS011;11249;52.468;13.776;2023-07-13T04:08:39;5.85;;;4.30;;
22166;SDS011;11249;52.468;13.776;2023-07-13T04:11:06;5.95;;;4.50;;
22166;SDS011;11249;52.468;13.776;2023-07-13T04:13:32;4.70;;;4.10;;
22166;SDS011;11249;52.468;13.776;2023-07-13T04:15:59;6.90;;;4.10;;
22166;SDS011;11249;52.468;13.776;2023-07-13T04:18:26;8.07;;;4.53;;
22166;SDS011;11249;52.468;13.776;2023-07-13T04:20:53;5.88;;;4.47;;
22166;SDS011;11249;52.468;13.776;2023-07-13T04:23:19;5.40;;;4.63;;
22166;SDS011;11249;52.468;13.776;2023-07-13T04:25:46;11.07;;;5.18;;
22166;SDS011;11249;52.468;13.776;2023-07-13T04:28:19;9.85;;;5.00;;
22166;SDS011;11249;52.468;13.776;2023-07-13T04:30:50;6.95;;;4.45;;
22166;SDS011;11249;52.468;13.776;2023-07-13T04:33:17;7.75;;;4.93;;
22166;SDS011;11249;52.468;13.776;2023-07-13T04:35:49;7.95;;;5.18;;
22166;SDS011;11249;52.468;13.776;2023-07-13T04:38:20;6.57;;;4.75;;
22166;SDS011;11249;52.468;13.776;2023-07-13T04:40:47;6.78;;;5.10;;
22166;SDS011;11249;52.468;13.776;2023-07-13T04:43:14;7.20;;;4.43;;
22166;SDS011;11249;52.468;13.776;2023-07-13T04:45:41;7.63;;;5.28;;
22166;SDS011;11249;52.468;13.776;2023-07-13T04:48:08;6.00;;;4.82;;
22166;SDS011;11249;52.468;13.776;2023-07-13T04:50:37;5.97;;;4.55;;
22166;SDS011;11249;52.468;13.776;2023-07-13T04:53:04;8.02;;;5.28;;
22166;SDS011;11249;52.468;13.776;2023-07-13T04:55:32;9.13;;;5.50;;
22166;SDS011;11249;52.468;13.776;2023-07-13T04:57:59;10.13;;;5.63;;
22166;SDS011;11249;52.468;13.776;2023-07-13T05:00:26;8.98;;;5.15;;
22166;SDS011;11249;52.468;13.776;2023-07-13T05:02:54;8.60;;;6.25;;
22166;SDS011;11249;52.468;13.776;2023-07-13T05:05:25;9.20;;;5.82;;
22166;SDS011;11249;52.468;13.776;2023-07-13T05:07:52;10.60;;;6.05;;
22166;SDS011;11249;52.468;13.776;2023-07-13T05:10:19;6.38;;;4.78;;
22166;SDS011;11249;52.468;13.776;2023-07-13T05:12:47;6.55;;;4.90;;
22166;SDS011;11249;52.468;13.776;2023-07-13T05:15:14;6.32;;;4.95;;
22166;SDS011;11249;52.468;13.776;2023-07-13T05:17:41;9.60;;;5.25;;
22166;SDS011;11249;52.468;13.776;2023-07-13T05:20:08;9.30;;;5.13;;
22166;SDS011;11249;52.468;13.776;2023-07-13T05:22:35;11.07;;;5.40;;
22166;SDS011;11249;52.468;13.776;2023-07-13T05:25:04;11.20;;;6.00;;
22166;SDS011;11249;52.468;13.776;2023-07-13T05:27:32;9.90;;;6.20;;
22166;SDS011;11249;52.468;13.776;2023-07-13T05:29:59;6.88;;;5.60;;
22166;SDS011;11249;52.468;13.776;2023-07-13T05:32:27;8.88;;;5.97;;
22166;SDS011;11249;52.468;13.776;2023-07-13T05:34:53;8.20;;;6.35;;
22166;SDS011;11249;52.468;13.776;2023-07-13T05:37:20;9.15;;;5.43;;
22166;SDS011;11249;52.468;13.776;2023-07-13T05:39:47;10.98;;;5.68;;
22166;SDS011;11249;52.468;13.776;2023-07-13T05:42:14;11.75;;;6.18;;
22166;SDS011;11249;52.468;13.776;2023-07-13T05:44:40;9.05;;;5.55;;
22166;SDS011;11249;52.468;13.776;2023-07-13T05:47:07;8.43;;;6.30;;
22166;SDS011;11249;52.468;13.776;2023-07-13T05:49:34;13.88;;;6.38;;
22166;SDS011;11249;52.468;13.776;2023-07-13T05:52:01;8.45;;;5.70;;
22166;SDS011;11249;52.468;13.776;2023-07-13T05:54:28;8.60;;;5.35;;
22166;SDS011;11249;52.468;13.776;2023-07-13T05:56:54;9.68;;;5.72;;
22166;SDS011;11249;52.468;13.776;2023-07-13T05:59:21;9.80;;;5.63;;
22166;SDS011;11249;52.468;13.776;2023-07-13T06:01:48;11.93;;;6.15;;
22166;SDS011;11249;52.468;13.776;2023-07-13T06:04:15;11.77;;;5.07;;
22166;SDS011;11249;52.468;13.776;2023-07-13T06:06:42;11.25;;;4.90;;
22166;SDS011;11249;52.468;13.776;2023-07-13T06:09:09;8.52;;;4.93;;
22166;SDS011;11249;52.468;13.776;2023-07-13T06:11:36;9.50;;;5.25;;
22166;SDS011;11249;52.468;13.776;2023-07-13T06:14:02;5.53;;;4.10;;
22166;SDS011;11249;52.468;13.776;2023-07-13T06:16:30;8.23;;;4.90;;
22166;SDS011;11249;52.468;13.776;2023-07-13T06:18:56;7.43;;;4.75;;
22166;SDS011;11249;52.468;13.776;2023-07-13T06:21:23;8.32;;;4.50;;
22166;SDS011;11249;52.468;13.776;2023-07-13T06:26:20;9.10;;;4.47;;
22166;SDS011;11249;52.468;13.776;2023-07-13T06:28:47;9.25;;;4.13;;
22166;SDS011;11249;52.468;13.776;2023-07-13T06:31:14;8.48;;;4.30;;
22166;SDS011;11249;52.468;13.776;2023-07-13T06:33:43;8.73;;;4.47;;
22166;SDS011;11249;52.468;13.776;2023-07-13T06:36:10;11.30;;;4.70;;
22166;SDS011;11249;52.468;13.776;2023-07-13T06:38:38;10.80;;;4.25;;
22166;SDS011;11249;52.468;13.776;2023-07-13T06:41:05;10.77;;;4.85;;
22166;SDS011;11249;52.468;13.776;2023-07-13T06:43:33;9.35;;;4.50;;
22166;SDS011;11249;52.468;13.776;2023-07-13T06:46:00;7.60;;;3.72;;
22166;SDS011;11249;52.468;13.776;2023-07-13T06:48:27;9.18;;;3.90;;
22166;SDS011;11249;52.468;13.776;2023-07-13T06:50:54;8.93;;;3.58;;
22166;SDS011;11249;52.468;13.776;2023-07-13T06:53:21;7.10;;;3.50;;
22166;SDS011;11249;52.468;13.776;2023-07-13T06:55:48;6.28;;;3.40;;
22166;SDS011;11249;52.468;13.776;2023-07-13T06:58:15;4.82;;;2.92;;
22166;SDS011;11249;52.468;13.776;2023-07-13T07:00:43;5.95;;;2.80;;
22166;SDS011;11249;52.468;13.776;2023-07-13T07:03:10;5.55;;;3.38;;
22166;SDS011;11249;52.468;13.776;2023-07-13T07:05:37;7.35;;;3.08;;
22166;SDS011;11249;52.468;13.776;2023-07-13T07:08:04;5.20;;;2.72;;
22166;SDS011;11249;52.468;13.776;2023-07-13T07:10:31;8.27;;;3.33;;
22166;SDS011;11249;52.468;13.776;2023-07-13T07:12:58;3.72;;;2.67;;
22166;SDS011;11249;52.468;13.776;2023-07-13T07:15:25;7.68;;;3.10;;
22166;SDS011;11249;52.468;13.776;2023-07-13T07:17:52;8.15;;;2.30;;
22166;SDS011;11249;52.468;13.776;2023-07-13T07:20:19;6.47;;;2.53;;
22166;SDS011;11249;52.468;13.776;2023-07-13T07:22:46;4.75;;;2.38;;
22166;SDS011;11249;52.468;13.776;2023-07-13T07:25:14;3.90;;;2.13;;
22166;SDS011;11249;52.468;13.776;2023-07-13T07:27:41;8.30;;;2.20;;
22166;SDS011;11249;52.468;13.776;2023-07-13T07:30:10;4.90;;;2.28;;
22166;SDS011;11249;52.468;13.776;2023-07-13T07:35:22;7.50;;;2.45;;
22166;SDS011;11249;52.468;13.776;2023-07-13T07:37:49;4.40;;;2.30;;
22166;SDS011;11249;52.468;13.776;2023-07-13T07:40:17;4.13;;;2.03;;
22166;SDS011;11249;52.468;13.776;2023-07-13T07:42:47;5.60;;;2.10;;
22166;SDS011;11249;52.468;13.776;2023-07-13T07:45:14;2.30;;;1.50;;
22166;SDS011;11249;52.468;13.776;2023-07-13T07:47:41;4.10;;;1.77;;
22166;SDS011;11249;52.468;13.776;2023-07-13T07:50:08;5.70;;;2.35;;
22166;SDS011;11249;52.468;13.776;2023-07-13T07:52:35;3.40;;;2.00;;
22166;SDS011;11249;52.468;13.776;2023-07-13T07:55:03;2.75;;;1.80;;
22166;SDS011;11249;52.468;13.776;2023-07-13T07:57:35;4.13;;;2.10;;
22166;SDS011;11249;52.468;13.776;2023-07-13T08:00:05;3.67;;;1.95;;
22166;SDS011;11249;52.468;13.776;2023-07-13T08:02:35;4.25;;;2.25;;
22166;SDS011;11249;52.468;13.776;2023-07-13T08:05:05;4.43;;;2.20;;
22166;SDS011;11249;52.468;13.776;2023-07-13T08:07:37;5.18;;;2.22;;
22166;SDS011;11249;52.468;13.776;2023-07-13T08:10:07;6.07;;;1.92;;
22166;SDS011;11249;52.468;13.776;2023-07-13T08:12:35;4.13;;;2.30;;
22166;SDS011;11249;52.468;13.776;2023-07-13T08:15:06;4.57;;;1.95;;
22166;SDS011;11249;52.468;13.776;2023-07-13T08:17:35;5.60;;;2.10;;
22166;SDS011;11249;52.468;13.776;2023-07-13T08:20:03;6.13;;;2.53;;
22166;SDS011;11249;52.468;13.776;2023-07-13T08:22:30;5.78;;;2.17;;
22166;SDS011;11249;52.468;13.776;2023-07-13T08:24:58;6.18;;;1.60;;
22166;SDS011;11249;52.468;13.776;2023-07-13T08:27:26;5.97;;;1.92;;
22166;SDS011;11249;52.468;13.776;2023-07-13T08:29:54;5.53;;;2.00;;
22166;SDS011;11249;52.468;13.776;2023-07-13T08:32:21;5.78;;;2.00;;
22166;SDS011;11249;52.468;13.776;2023-07-13T08:34:49;5.95;;;1.88;;
22166;SDS011;11249;52.468;13.776;2023-07-13T08:37:16;3.30;;;1.77;;
22166;SDS011;11249;52.468;13.776;2023-07-13T08:39:43;5.80;;;1.85;;
22166;SDS011;11249;52.468;13.776;2023-07-13T08:47:32;3.03;;;1.70;;
22166;SDS011;11249;52.468;13.776;2023-07-13T08:50:02;3.40;;;1.60;;
22166;SDS011;11249;52.468;13.776;2023-07-13T08:52:31;3.65;;;1.73;;
22166;SDS011;11249;52.468;13.776;2023-07-13T08:57:50;2.50;;;1.27;;
22166;SDS011;11249;52.468;13.776;2023-07-13T09:00:22;4.10;;;1.80;;
22166;SDS011;11249;52.468;13.776;2023-07-13T09:02:57;5.28;;;1.58;;
22166;SDS011;11249;52.468;13.776;2023-07-13T09:05:38;3.78;;;1.70;;
22166;SDS011;11249;52.468;13.776;2023-07-13T09:08:19;6.35;;;1.67;;
22166;SDS011;11249;52.468;13.776;2023-07-13T09:11:19;4.20;;;1.83;;
22166;SDS011;11249;52.468;13.776;2023-07-13T09:16:49;3.85;;;1.50;;
22166;SDS011;11249;52.468;13.776;2023-07-13T09:19:21;4.38;;;1.50;;
22166;SDS011;11249;52.468;13.776;2023-07-13T09:21:59;3.30;;;1.50;;
22166;SDS011;11249;52.468;13.776;2023-07-13T09:24:29;4.28;;;1.77;;
22166;SDS011;11249;52.468;13.776;2023-07-13T09:27:17;2.97;;;1.67;;
22166;SDS011;11249;52.468;13.776;2023-07-13T09:29:54;4.22;;;1.65;;
22166;SDS011;11249;52.468;13.776;2023-07-13T09:32:28;2.50;;;1.50;;
22166;SDS011;11249;52.468;13.776;2023-07-13T09:34:56;1.92;;;1.23;;
22166;SDS011;11249;52.468;13.776;2023-07-13T09:37:24;3.88;;;1.70;;
22166;SDS011;11249;52.468;13.776;2023-07-13T09:39:58;2.92;;;1.58;;
22166;SDS011;11249;52.468;13.776;2023-07-13T09:42:31;3.30;;;1.50;;
22166;SDS011;11249;52.468;13.776;2023-07-13T09:45:00;3.13;;;1.63;;
22166;SDS011;11249;52.468;13.776;2023-07-13T09:47:33;4.05;;;1.80;;
22166;SDS011;11249;52.468;13.776;2023-07-13T09:50:06;3.95;;;1.58;;
22166;SDS011;11249;52.468;13.776;2023-07-13T09:52:41;2.85;;;1.75;;
22166;SDS011;11249;52.468;13.776;2023-07-13T09:55:29;2.58;;;1.80;;
22166;SDS011;11249;52.468;13.776;2023-07-13T09:58:06;4.10;;;2.13;;
22166;SDS011;11249;52.468;13.776;2023-07-13T10:00:38;5.85;;;2.00;;
22166;SDS011;11249;52.468;13.776;2023-07-13T10:06:00;5.25;;;2.08;;
22166;SDS011;11249;52.468;13.776;2023-07-13T10:08:49;5.32;;;2.15;;
22166;SDS011;11249;52.468;13.776;2023-07-13T10:11:21;4.15;;;2.53;;
22166;SDS011;11249;52.468;13.776;2023-07-13T10:14:14;5.13;;;1.90;;
22166;SDS011;11249;52.468;13.776;2023-07-13T10:16:44;3.65;;;1.80;;
22166;SDS011;11249;52.468;13.776;2023-07-13T10:19:23;7.43;;;2.15;;
22166;SDS011;11249;52.468;13.776;2023-07-13T10:21:54;3.55;;;1.85;;
22166;SDS011;11249;52.468;13.776;2023-07-13T10:24:30;2.92;;;2.03;;
22166;SDS011;11249;52.468;13.776;2023-07-13T10:29:59;3.85;;;1.80;;
22166;SDS011;11249;52.468;13.776;2023-07-13T10:32:34;3.85;;;2.08;;
22166;SDS011;11249;52.468;13.776;2023-07-13T10:35:02;5.45;;;2.03;;
22166;SDS011;11249;52.468;13.776;2023-07-13T10:37:31;5.78;;;1.95;;
22166;SDS011;11249;52.468;13.776;2023-07-13T10:40:11;4.32;;;2.00;;
22166;SDS011;11249;52.468;13.776;2023-07-13T10:42:42;4.85;;;2.17;;
22166;SDS011;11249;52.468;13.776;2023-07-13T10:45:22;5.82;;;2.30;;
22166;SDS011;11249;52.468;13.776;2023-07-13T10:47:53;5.43;;;2.00;;
22166;SDS011;11249;52.468;13.776;2023-07-13T10:50:23;7.15;;;2.22;;
22166;SDS011;11249;52.468;13.776;2023-07-13T10:52:53;5.28;;;1.98;;
22166;SDS011;11249;52.468;13.776;2023-07-13T10:58:20;3.55;;;2.35;;
22166;SDS011;11249;52.468;13.776;2023-07-13T11:01:02;5.93;;;2.38;;
22166;SDS011;11249;52.468;13.776;2023-07-13T11:03:36;3.88;;;2.22;;
22166;SDS011;11249;52.468;13.776;2023-07-13T11:14:02;5.05;;;2.50;;
22166;SDS011;11249;52.468;13.776;2023-07-13T11:16:35;4.93;;;2.40;;
22166;SDS011;11249;52.468;13.776;2023-07-13T11:24:50;2.45;;;2.15;;
22166;SDS011;11249;52.468;13.776;2023-07-13T11:27:37;6.85;;;2.55;;
22166;SDS011;11249;52.468;13.776;2023-07-13T11:30:18;3.22;;;2.25;;
22166;SDS011;11249;52.468;13.776;2023-07-13T11:33:03;5.32;;;2.45;;
22166;SDS011;11249;52.468;13.776;2023-07-13T11:35:36;3.92;;;2.30;;
22166;SDS011;11249;52.468;13.776;2023-07-13T11:38:12;6.22;;;2.45;;
22166;SDS011;11249;52.468;13.776;2023-07-13T11:40:45;5.43;;;2.63;;
22166;SDS011;11249;52.468;13.776;2023-07-13T11:43:20;9.27;;;2.78;;
22166;SDS011;11249;52.468;13.776;2023-07-13T11:45:51;4.30;;;2.20;;
22166;SDS011;11249;52.468;13.776;2023-07-13T11:48:22;4.95;;;2.00;;
22166;SDS011;11249;52.468;13.776;2023-07-13T11:50:51;4.63;;;2.38;;
22166;SDS011;11249;52.468;13.776;2023-07-13T11:53:22;7.07;;;2.45;;
22166;SDS011;11249;52.468;13.776;2023-07-13T11:55:51;5.30;;;2.40;;
22166;SDS011;11249;52.468;13.776;2023-07-13T11:58:21;6.03;;;2.10;;
22166;SDS011;11249;52.468;13.776;2023-07-13T12:00:50;5.18;;;1.88;;
22166;SDS011;11249;52.468;13.776;2023-07-13T12:03:21;6.82;;;1.92;;
22166;SDS011;11249;52.468;13.776;2023-07-13T12:05:57;3.78;;;2.33;;
22166;SDS011;11249;52.468;13.776;2023-07-13T12:08:25;5.00;;;2.17;;
22166;SDS011;11249;52.468;13.776;2023-07-13T12:10:59;6.70;;;2.45;;
22166;SDS011;11249;52.468;13.776;2023-07-13T12:13:35;6.72;;;2.60;;
22166;SDS011;11249;52.468;13.776;2023-07-13T12:19:00;2.53;;;2.00;;
22166;SDS011;11249;52.468;13.776;2023-07-13T12:21:29;4.43;;;1.88;;
22166;SDS011;11249;52.468;13.776;2023-07-13T12:24:03;3.58;;;1.70;;
22166;SDS011;11249;52.468;13.776;2023-07-13T12:26:31;5.95;;;1.95;;
22166;SDS011;11249;52.468;13.776;2023-07-13T12:28:59;5.93;;;2.17;;
22166;SDS011;11249;52.468;13.776;2023-07-13T12:34:10;4.70;;;2.28;;
22166;SDS011;11249;52.468;13.776;2023-07-13T12:36:49;2.83;;;2.00;;
22166;SDS011;11249;52.468;13.776;2023-07-13T12:39:34;4.53;;;1.67;;
22166;SDS011;11249;52.468;13.776;2023-07-13T12:44:46;5.50;;;2.17;;
22166;SDS011;11249;52.468;13.776;2023-07-13T12:47:14;3.35;;;2.28;;
22166;SDS011;11249;52.468;13.776;2023-07-13T12:49:43;4.40;;;2.15;;
22166;SDS011;11249;52.468;13.776;2023-07-13T12:52:16;2.83;;;2.13;;
22166;SDS011;11249;52.468;13.776;2023-07-13T12:54:59;5.35;;;2.30;;
22166;SDS011;11249;52.468;13.776;2023-07-13T12:57:50;4.30;;;2.25;;
22166;SDS011;11249;52.468;13.776;2023-07-13T13:02:49;4.47;;;2.03;;
22166;SDS011;11249;52.468;13.776;2023-07-13T13:05:18;7.22;;;2.33;;
22166;SDS011;11249;52.468;13.776;2023-07-13T13:07:45;4.68;;;2.13;;
22166;SDS011;11249;52.468;13.776;2023-07-13T13:10:13;5.70;;;2.33;;
22166;SDS011;11249;52.468;13.776;2023-07-13T13:12:40;3.80;;;2.28;;
22166;SDS011;11249;52.468;13.776;2023-07-13T13:15:10;4.15;;;2.13;;
22166;SDS011;11249;52.468;13.776;2023-07-13T13:17:38;5.63;;;1.85;;
22166;SDS011;11249;52.468;13.776;2023-07-13T13:20:26;6.40;;;2.00;;
22166;SDS011;11249;52.468;13.776;2023-07-13T13:22:52;3.55;;;1.80;;
22166;SDS011;11249;52.468;13.776;2023-07-13T13:25:19;3.60;;;1.70;;
22166;SDS011;11249;52.468;13.776;2023-07-13T13:27:46;4.15;;;1.70;;
22166;SDS011;11249;52.468;13.776;2023-07-13T13:30:16;5.72;;;1.75;;
22166;SDS011;11249;52.468;13.776;2023-07-13T13:32:44;5.05;;;2.28;;
22166;SDS011;11249;52.468;13.776;2023-07-13T13:35:16;7.13;;;1.90;;
22166;SDS011;11249;52.468;13.776;2023-07-13T13:37:46;5.63;;;2.05;;
22166;SDS011;11249;52.468;13.776;2023-07-13T13:40:20;3.42;;;1.67;;
22166;SDS011;11249;52.468;13.776;2023-07-13T13:42:53;6.68;;;1.95;;
22166;SDS011;11249;52.468;13.776;2023-07-13T13:45:21;4.75;;;1.80;;
22166;SDS011;11249;52.468;13.776;2023-07-13T13:47:48;4.90;;;2.05;;
22166;SDS011;11249;52.468;13.776;2023-07-13T13:50:16;4.88;;;1.80;;
22166;SDS011;11249;52.468;13.776;2023-07-13T13:52:45;7.95;;;2.65;;
22166;SDS011;11249;52.468;13.776;2023-07-13T13:55:13;4.40;;;1.85;;
22166;SDS011;11249;52.468;13.776;2023-07-13T13:57:41;2.63;;;1.70;;
22166;SDS011;11249;52.468;13.776;2023-07-13T14:00:12;3.65;;;1.80;;
22166;SDS011;11249;52.468;13.776;2023-07-13T14:02:41;6.93;;;1.98;;
22166;SDS011;11249;52.468;13.776;2023-07-13T14:05:14;7.55;;;2.00;;
22166;SDS011;11249;52.468;13.776;2023-07-13T14:07:45;3.83;;;1.90;;
22166;SDS011;11249;52.468;13.776;2023-07-13T14:10:14;5.57;;;1.98;;
22166;SDS011;11249;52.468;13.776;2023-07-13T14:12:42;6.20;;;1.45;;
22166;SDS011;11249;52.468;13.776;2023-07-13T14:15:20;8.52;;;1.73;;
22166;SDS011;11249;52.468;13.776;2023-07-13T14:17:48;4.15;;;1.80;;
22166;SDS011;11249;52.468;13.776;2023-07-13T14:20:19;5.05;;;1.90;;
22166;SDS011;11249;52.468;13.776;2023-07-13T14:22:48;4.13;;;1.65;;
22166;SDS011;11249;52.468;13.776;2023-07-13T14:25:16;5.55;;;1.60;;
22166;SDS011;11249;52.468;13.776;2023-07-13T14:27:49;5.63;;;2.00;;
22166;SDS011;11249;52.468;13.776;2023-07-13T14:30:22;5.82;;;1.85;;
22166;SDS011;11249;52.468;13.776;2023-07-13T14:32:49;3.05;;;1.55;;
22166;SDS011;11249;52.468;13.776;2023-07-13T14:35:16;4.18;;;1.45;;
22166;SDS011;11249;52.468;13.776;2023-07-13T14:37:45;5.68;;;1.55;;
22166;SDS011;11249;52.468;13.776;2023-07-13T14:40:17;5.35;;;1.60;;
22166;SDS011;11249;52.468;13.776;2023-07-13T14:42:52;3.38;;;1.15;;
22166;SDS011;11249;52.468;13.776;2023-07-13T14:45:19;4.93;;;1.60;;
22166;SDS011;11249;52.468;13.776;2023-07-13T14:47:47;4.00;;;1.58;;
22166;SDS011;11249;52.468;13.776;2023-07-13T14:52:42;5.70;;;1.67;;
22166;SDS011;11249;52.468;13.776;2023-07-13T14:55:10;3.00;;;1.80;;
22166;SDS011;11249;52.468;13.776;2023-07-13T14:57:39;2.85;;;1.52;;
22166;SDS011;11249;52.468;13.776;2023-07-13T15:00:15;4.60;;;1.52;;
22166;SDS011;11249;52.468;13.776;2023-07-13T15:02:44;5.40;;;1.60;;
22166;SDS011;11249;52.468;13.776;2023-07-13T15:05:22;6.80;;;1.83;;
22166;SDS011;11249;52.468;13.776;2023-07-13T15:07:51;5.07;;;1.35;;
22166;SDS011;11249;52.468;13.776;2023-07-13T15:10:23;7.45;;;1.83;;
22166;SDS011;11249;52.468;13.776;2023-07-13T15:15:19;4.55;;;1.38;;
22166;SDS011;11249;52.468;13.776;2023-07-13T15:17:46;2.10;;;1.15;;
22166;SDS011;11249;52.468;13.776;2023-07-13T15:20:26;3.15;;;1.42;;
22166;SDS011;11249;52.468;13.776;2023-07-13T15:22:54;3.03;;;1.80;;
22166;SDS011;11249;52.468;13.776;2023-07-13T15:25:22;3.08;;;1.50;;
22166;SDS011;11249;52.468;13.776;2023-07-13T15:27:51;2.17;;;1.30;;
22166;SDS011;11249;52.468;13.776;2023-07-13T15:30:19;3.78;;;1.60;;
22166;SDS011;11249;52.468;13.776;2023-07-13T15:32:46;4.95;;;1.50;;
22166;SDS011;11249;52.468;13.776;2023-07-13T15:35:18;9.43;;;1.80;;
22166;SDS011;11249;52.468;13.776;2023-07-13T15:37:48;4.65;;;1.33;;
22166;SDS011;11249;52.468;13.776;2023-07-13T15:40:16;3.10;;;1.10;;
22166;SDS011;11249;52.468;13.776;2023-07-13T15:42:43;2.00;;;1.20;;